Time;durP1;ratioP1;P1;durP2;ratioP2;P2;SDS_P1;SDS_P2;PMS_P1;PMS_P2;Temp;Humidity;BMP_temperature;BMP_pressure;BME280_temperature;BME280_humidity;BME280_pressure;Samples;Min_cycle;Max_cycle;Signal;HPM_P1;HPM_P2
2022/04/05 00:02:22;;;;;;;1.10;1.00;;;15.90;35.60;;;;;;5085158;28;47254;-18
2022/04/05 00:04:50;;;;;;;1.00;1.00;;;15.90;35.60;;;;;;5085312;28;46978;-21
2022/04/05 00:07:17;;;;;;;1.23;1.13;;;15.90;35.60;;;;;;5085501;28;47340;-16
2022/04/05 00:09:43;;;;;;;1.20;1.10;;;15.90;35.60;;;;;;5084945;28;47082;-16
2022/04/05 00:12:10;;;;;;;2.03;1.10;;;15.90;35.60;;;;;;5085079;28;46944;-16
2022/04/05 00:14:37;;;;;;;1.40;1.30;;;15.90;35.60;;;;;;5085102;28;46771;-20
2022/04/05 00:17:04;;;;;;;1.30;1.20;;;15.90;35.60;;;;;;5084868;28;47191;-16
2022/04/05 00:19:31;;;;;;;1.38;1.27;;;15.90;35.70;;;;;;5084710;28;46819;-21
2022/04/05 00:21:59;;;;;;;1.08;1.08;;;15.90;35.70;;;;;;5085002;28;47446;-22
2022/04/05 00:24:26;;;;;;;1.30;1.20;;;15.90;35.70;;;;;;5086981;27;46931;-16
2022/04/05 00:26:55;;;;;;;2.15;1.15;;;15.90;35.70;;;;;;5088590;28;47187;-17
2022/04/05 00:29:22;;;;;;;1.00;1.00;;;15.80;35.60;;;;;;5087901;28;48371;-16
2022/04/05 00:31:49;;;;;;;1.08;1.05;;;15.80;35.70;;;;;;5088018;28;47187;-22
2022/04/05 00:34:16;;;;;;;1.38;1.27;;;15.80;35.80;;;;;;5088066;28;46809;-16
2022/04/05 00:36:42;;;;;;;1.17;1.17;;;15.80;35.70;;;;;;5088697;28;46946;-17
2022/04/05 00:39:10;;;;;;;2.30;1.27;;;15.80;35.70;;;;;;5087954;28;48886;-21
2022/04/05 00:41:37;;;;;;;1.30;1.20;;;15.80;35.80;;;;;;5087943;28;46873;-17
2022/04/05 00:44:04;;;;;;;2.10;1.10;;;15.80;35.70;;;;;;5087987;28;46916;-22
2022/04/05 00:46:31;;;;;;;1.20;1.10;;;15.80;35.80;;;;;;5088127;28;47138;-16
2022/04/05 00:48:58;;;;;;;0.90;0.90;;;15.80;35.80;;;;;;5087825;28;46901;-17
2022/04/05 00:51:26;;;;;;;1.15;1.05;;;15.70;35.80;;;;;;5087700;28;46790;-17
2022/04/05 00:53:54;;;;;;;1.30;1.20;;;15.70;35.80;;;;;;5087522;28;46850;-21
2022/04/05 00:56:22;;;;;;;1.10;1.10;;;15.70;35.80;;;;;;5088129;28;47144;-16
2022/04/05 00:58:50;;;;;;;1.30;1.20;;;15.70;35.90;;;;;;5087372;28;48902;-16
2022/04/05 01:01:18;;;;;;;2.33;1.20;;;15.70;35.80;;;;;;5087444;28;47421;-17
2022/04/05 01:03:47;;;;;;;1.00;1.00;;;15.70;35.80;;;;;;5087463;28;46886;-21
2022/04/05 01:06:14;;;;;;;1.13;1.02;;;15.70;35.90;;;;;;5087940;28;46866;-21
2022/04/05 01:08:40;;;;;;;1.27;1.20;;;15.70;35.90;;;;;;5087549;28;48069;-21
2022/04/05 01:11:07;;;;;;;0.90;0.90;;;15.70;36.00;;;;;;5087676;28;46879;-16
2022/04/05 01:13:35;;;;;;;1.23;1.13;;;15.70;35.90;;;;;;5087625;28;46859;-21
2022/04/05 01:16:02;;;;;;;1.20;1.10;;;15.60;35.90;;;;;;5087961;28;47226;-21
2022/04/05 01:18:28;;;;;;;1.58;1.10;;;15.60;35.90;;;;;;5087106;28;46947;-21
2022/04/05 01:20:56;;;;;;;1.20;1.10;;;15.60;35.90;;;;;;5087429;28;46886;-21
2022/04/05 01:23:23;;;;;;;0.95;0.95;;;15.60;35.90;;;;;;5087390;28;46856;-21
2022/04/05 01:25:51;;;;;;;1.10;1.00;;;15.60;35.90;;;;;;5087622;28;46991;-20
2022/04/05 01:28:18;;;;;;;1.10;1.10;;;15.60;35.90;;;;;;5087163;28;48831;-16
2022/04/05 01:30:44;;;;;;;1.15;1.10;;;15.60;35.90;;;;;;5087441;28;46990;-21
2022/04/05 01:33:11;;;;;;;1.20;1.17;;;15.60;36.00;;;;;;5087331;28;46790;-22
2022/04/05 01:35:39;;;;;;;0.90;0.90;;;15.60;36.00;;;;;;5086587;27;46865;-17
2022/04/05 01:38:06;;;;;;;0.90;0.90;;;15.60;35.90;;;;;;5086857;28;48390;-17
2022/04/05 01:40:33;;;;;;;1.08;0.98;;;15.60;35.90;;;;;;5086853;28;46995;-21
2022/04/05 01:43:01;;;;;;;1.20;1.10;;;15.60;36.00;;;;;;5087361;28;46922;-21
2022/04/05 01:45:28;;;;;;;1.10;1.10;;;15.60;36.00;;;;;;5087458;28;47354;-21
2022/04/05 01:47:55;;;;;;;1.63;1.05;;;15.60;36.00;;;;;;5086951;28;47980;-21
2022/04/05 01:50:21;;;;;;;1.15;1.00;;;15.60;36.00;;;;;;5087173;28;46886;-16
2022/04/05 01:52:48;;;;;;;1.55;1.13;;;15.60;35.90;;;;;;5086871;28;46780;-17
2022/04/05 01:55:15;;;;;;;1.48;1.38;;;15.60;36.00;;;;;;5087415;28;47244;-17
2022/04/05 01:57:42;;;;;;;1.13;1.02;;;15.50;35.90;;;;;;5086577;28;47948;-21
2022/04/05 02:00:14;;;;;;;1.23;1.15;;;15.50;36.00;;;;;;5086609;28;46954;-21
2022/04/05 02:02:41;;;;;;;2.45;1.15;;;15.50;36.00;;;;;;5086507;28;46935;-16
2022/04/05 02:05:10;;;;;;;0.93;0.93;;;15.50;36.00;;;;;;5087077;28;46898;-17
2022/04/05 02:07:37;;;;;;;1.42;1.00;;;15.50;36.00;;;;;;5086604;28;49071;-21
2022/04/05 02:10:04;;;;;;;1.60;1.20;;;15.50;35.90;;;;;;5086760;28;47350;-16
2022/04/05 02:12:31;;;;;;;1.00;1.00;;;15.50;36.00;;;;;;5086496;28;46934;-22
2022/04/05 02:14:58;;;;;;;1.10;1.10;;;15.50;36.10;;;;;;5086999;28;46876;-21
2022/04/05 02:17:26;;;;;;;1.35;1.17;;;15.50;36.20;;;;;;5086056;28;49042;-21
2022/04/05 02:19:54;;;;;;;1.20;1.10;;;15.50;36.00;;;;;;5086292;28;46839;-17
2022/04/05 02:22:20;;;;;;;1.15;1.10;;;15.40;36.70;;;;;;5086718;28;46889;-22
2022/04/05 02:24:47;;;;;;;1.23;1.02;;;15.50;36.10;;;;;;5086783;28;46901;-21
2022/04/05 02:27:14;;;;;;;0.85;0.85;;;15.50;36.10;;;;;;5086326;28;49088;-21
2022/04/05 02:29:40;;;;;;;1.20;1.10;;;15.50;36.20;;;;;;5086130;28;47005;-21
2022/04/05 02:32:08;;;;;;;0.90;0.90;;;15.50;36.00;;;;;;5086430;28;46850;-16
2022/04/05 02:34:36;;;;;;;1.55;1.40;;;15.40;36.10;;;;;;5086564;28;46861;-16
2022/04/05 02:37:03;;;;;;;1.10;1.00;;;15.40;36.00;;;;;;5086007;28;47093;-18
2022/04/05 02:39:30;;;;;;;0.90;0.90;;;15.40;36.10;;;;;;5085951;28;47464;-22
2022/04/05 02:41:56;;;;;;;1.30;1.20;;;15.40;36.10;;;;;;5085940;28;46867;-18
2022/04/05 02:44:23;;;;;;;1.70;0.98;;;15.40;36.00;;;;;;5086418;28;46882;-21
2022/04/05 02:46:50;;;;;;;1.20;1.10;;;15.40;36.10;;;;;;5085712;27;47079;-17
2022/04/05 02:49:16;;;;;;;1.33;1.20;;;15.40;36.10;;;;;;5085947;28;46897;-16
2022/04/05 02:51:45;;;;;;;1.00;0.90;;;15.40;36.10;;;;;;5086093;28;46890;-21
2022/04/05 02:54:11;;;;;;;0.98;0.98;;;15.40;36.10;;;;;;5085685;28;46855;-16
2022/04/05 02:56:38;;;;;;;1.00;1.00;;;15.40;36.10;;;;;;5086194;28;49185;-21
2022/04/05 02:59:05;;;;;;;1.30;1.20;;;15.40;36.20;;;;;;5085580;28;46884;-21
2022/04/05 03:01:31;;;;;;;1.20;1.10;;;15.40;36.20;;;;;;5085903;28;46826;-17
2022/04/05 03:03:58;;;;;;;1.08;1.08;;;15.40;36.10;;;;;;5086220;28;46870;-16
2022/04/05 03:06:25;;;;;;;1.08;1.08;;;15.40;36.10;;;;;;5085991;28;48116;-22
2022/04/05 03:08:56;;;;;;;1.33;1.23;;;15.40;36.10;;;;;;5085277;28;46926;-20
2022/04/05 03:11:23;;;;;;;1.30;1.20;;;15.40;36.10;;;;;;5085982;28;46870;-21
2022/04/05 03:13:50;;;;;;;0.77;0.77;;;15.40;36.10;;;;;;5085497;28;46941;-21
2022/04/05 03:16:16;;;;;;;1.20;1.10;;;15.40;36.10;;;;;;5085742;28;47669;-21
2022/04/05 03:18:45;;;;;;;1.52;1.40;;;15.30;36.10;;;;;;5085599;28;47429;-17
2022/04/05 03:21:12;;;;;;;1.30;1.20;;;15.40;36.10;;;;;;5085448;28;46905;-21
2022/04/05 03:23:39;;;;;;;1.55;1.25;;;15.30;36.10;;;;;;5085724;28;46871;-16
2022/04/05 03:26:07;;;;;;;1.02;1.02;;;15.30;36.00;;;;;;5085614;28;47015;-17
2022/04/05 03:28:34;;;;;;;1.00;1.00;;;15.30;36.10;;;;;;5085444;28;47108;-16
2022/04/05 03:31:01;;;;;;;1.33;1.02;;;15.30;36.20;;;;;;5085353;28;46954;-17
2022/04/05 03:33:28;;;;;;;1.10;1.10;;;15.30;36.10;;;;;;5085698;28;46906;-17
2022/04/05 03:35:55;;;;;;;1.73;1.20;;;15.30;36.20;;;;;;5085470;28;48856;-17
2022/04/05 03:38:22;;;;;;;1.75;1.00;;;15.30;36.20;;;;;;5084957;28;46906;-21
2022/04/05 03:40:49;;;;;;;1.17;1.10;;;15.30;36.20;;;;;;5085506;28;46803;-21
2022/04/05 03:43:17;;;;;;;1.20;1.10;;;15.30;36.20;;;;;;5085125;28;46880;-21
2022/04/05 03:45:44;;;;;;;1.00;1.00;;;15.30;36.20;;;;;;5085469;28;47956;-21
2022/04/05 03:48:11;;;;;;;1.00;1.00;;;15.30;36.20;;;;;;5092672;27;46959;-21
2022/04/05 03:50:38;;;;;;;1.15;1.10;;;15.30;36.20;;;;;;5105622;27;46843;-18
2022/04/05 03:53:04;;;;;;;1.33;1.10;;;15.30;36.20;;;;;;5105743;27;46997;-21
2022/04/05 03:55:31;;;;;;;1.05;1.00;;;15.30;36.20;;;;;;5105658;27;48121;-17
2022/04/05 03:57:58;;;;;;;1.20;1.10;;;15.30;36.20;;;;;;5105525;27;47415;-16
2022/04/05 04:00:26;;;;;;;0.82;0.82;;;15.30;36.20;;;;;;5109085;27;46985;-17
2022/04/05 04:02:52;;;;;;;1.17;1.10;;;15.30;36.20;;;;;;5108972;27;47297;-17
2022/04/05 04:05:20;;;;;;;1.00;1.00;;;15.30;36.30;;;;;;5108955;27;47963;-16
2022/04/05 04:07:47;;;;;;;1.20;1.10;;;15.30;36.30;;;;;;5108597;27;46939;-16
2022/04/05 04:10:14;;;;;;;1.13;1.00;;;15.30;36.30;;;;;;5109303;27;47161;-17
2022/04/05 04:12:41;;;;;;;1.65;1.20;;;15.30;36.20;;;;;;5109213;27;46978;-21
2022/04/05 04:15:08;;;;;;;1.35;1.15;;;15.30;36.30;;;;;;5109019;27;47127;-16
2022/04/05 04:17:36;;;;;;;1.42;1.00;;;15.20;36.20;;;;;;5108835;27;47338;-21
2022/04/05 04:20:04;;;;;;;1.10;1.00;;;15.20;36.20;;;;;;5109205;27;46731;-22
2022/04/05 04:22:31;;;;;;;1.30;1.20;;;15.20;36.30;;;;;;5108551;27;47108;-21
2022/04/05 04:24:58;;;;;;;1.30;1.05;;;15.20;36.30;;;;;;5109149;27;48101;-16
2022/04/05 04:27:24;;;;;;;1.00;1.00;;;15.20;36.30;;;;;;5108289;27;46760;-17
2022/04/05 04:29:51;;;;;;;0.93;0.93;;;15.20;36.30;;;;;;5109085;27;46900;-21
2022/04/05 04:32:18;;;;;;;1.30;1.17;;;15.20;36.30;;;;;;5099718;27;47048;-16
2022/04/05 04:34:46;;;;;;;1.30;1.20;;;15.20;36.30;;;;;;5088174;28;47073;-22
2022/04/05 04:37:14;;;;;;;1.00;0.90;;;15.20;36.30;;;;;;5087929;28;46999;-21
2022/04/05 04:39:40;;;;;;;1.00;1.00;;;15.20;36.30;;;;;;5088250;28;46753;-16
2022/04/05 04:42:07;;;;;;;1.33;1.20;;;15.20;36.30;;;;;;5088436;28;46888;-16
2022/04/05 04:44:34;;;;;;;1.15;1.05;;;15.10;36.30;;;;;;5088241;28;48970;-16
2022/04/05 04:47:01;;;;;;;1.33;1.10;;;15.10;36.30;;;;;;5087829;28;46907;-21
2022/04/05 04:49:28;;;;;;;1.30;1.20;;;15.10;36.30;;;;;;5088026;28;46939;-21
2022/04/05 04:51:56;;;;;;;0.90;0.90;;;15.10;36.30;;;;;;5088103;28;47013;-22
2022/04/05 04:54:22;;;;;;;1.25;1.15;;;15.10;36.30;;;;;;5087327;28;48051;-17
2022/04/05 04:56:49;;;;;;;2.38;0.90;;;15.10;36.30;;;;;;5087700;28;47251;-22
2022/04/05 04:59:16;;;;;;;1.30;1.15;;;15.20;36.40;;;;;;5087799;28;46873;-21
2022/04/05 05:01:42;;;;;;;1.20;1.10;;;15.10;36.30;;;;;;5087692;28;46850;-21
2022/04/05 05:04:09;;;;;;;1.17;1.10;;;15.10;36.30;;;;;;5087766;28;47904;-16
2022/04/05 05:06:36;;;;;;;1.10;1.10;;;15.10;36.40;;;;;;5087663;28;46885;-17
2022/04/05 05:09:04;;;;;;;1.10;1.00;;;15.10;36.40;;;;;;5087840;28;46802;-20
2022/04/05 05:11:31;;;;;;;1.00;1.00;;;15.10;36.50;;;;;;5086638;28;46893;-17
2022/04/05 05:13:57;;;;;;;1.55;1.30;;;15.10;36.40;;;;;;5087203;28;47864;-21
2022/04/05 05:16:24;;;;;;;0.95;0.90;;;15.10;36.40;;;;;;5087586;28;46973;-17
2022/04/05 05:18:51;;;;;;;1.05;1.00;;;15.10;37.00;;;;;;5087118;28;46823;-21
2022/04/05 05:21:19;;;;;;;1.20;1.10;;;15.10;36.40;;;;;;5087788;28;46886;-21
2022/04/05 05:23:46;;;;;;;1.30;1.20;;;15.10;36.50;;;;;;5087074;28;48119;-21
2022/04/05 05:26:15;;;;;;;1.25;1.08;;;15.10;36.50;;;;;;5087511;28;46842;-16
2022/04/05 05:28:41;;;;;;;1.33;1.13;;;15.10;36.40;;;;;;5087225;28;46905;-17
2022/04/05 05:31:08;;;;;;;0.98;0.95;;;15.10;36.40;;;;;;5086793;28;46872;-17
2022/04/05 05:33:35;;;;;;;1.90;1.15;;;15.10;36.40;;;;;;5086974;28;49386;-22
2022/04/05 05:36:02;;;;;;;0.90;0.90;;;15.10;36.40;;;;;;5087297;28;46930;-17
2022/04/05 05:38:29;;;;;;;1.10;1.10;;;15.10;36.40;;;;;;5087118;28;46806;-21
2022/04/05 05:40:55;;;;;;;1.20;1.10;;;15.10;36.40;;;;;;5086756;28;47258;-21
2022/04/05 05:43:24;;;;;;;2.08;1.27;;;15.10;36.50;;;;;;5087178;28;48922;-21
2022/04/05 05:45:50;;;;;;;1.20;1.10;;;15.10;36.50;;;;;;5087080;28;46889;-21
2022/04/05 05:48:17;;;;;;;1.20;1.10;;;15.10;36.50;;;;;;5086743;28;47375;-20
2022/04/05 05:50:44;;;;;;;1.42;1.30;;;15.10;36.50;;;;;;5087032;28;47278;-17
2022/04/05 05:53:11;;;;;;;1.13;1.08;;;15.10;36.40;;;;;;5086380;28;49320;-16
2022/04/05 05:55:37;;;;;;;1.55;1.10;;;15.10;36.40;;;;;;5086024;28;46904;-21
2022/04/05 05:58:04;;;;;;;1.13;1.05;;;15.10;36.40;;;;;;5086213;28;46952;-21
2022/04/05 06:00:32;;;;;;;1.70;1.10;;;15.10;36.50;;;;;;5085247;28;46980;-21
2022/04/05 06:03:01;;;;;;;1.50;1.10;;;15.10;36.50;;;;;;5084838;28;46991;-16
2022/04/05 06:05:28;;;;;;;1.30;1.20;;;15.10;36.40;;;;;;5084844;28;46886;-16
2022/04/05 06:07:55;;;;;;;2.05;1.08;;;15.10;36.40;;;;;;5084931;28;46960;-16
2022/04/05 06:10:22;;;;;;;1.30;1.20;;;15.10;36.40;;;;;;5085001;28;46945;-17
2022/04/05 06:12:49;;;;;;;1.63;1.10;;;15.10;36.40;;;;;;5084851;28;48107;-17
2022/04/05 06:15:16;;;;;;;1.27;1.15;;;15.10;36.50;;;;;;5085106;28;46897;-17
2022/04/05 06:17:45;;;;;;;1.35;1.25;;;15.00;36.40;;;;;;5086195;28;46901;-21
2022/04/05 06:20:12;;;;;;;1.02;1.00;;;15.00;36.50;;;;;;5086772;28;47115;-21
2022/04/05 06:22:43;;;;;;;2.63;1.25;;;15.10;36.50;;;;;;5085316;27;46953;-16
2022/04/05 06:25:10;;;;;;;1.52;1.05;;;15.10;36.50;;;;;;5086476;28;46908;-16
2022/04/05 06:27:37;;;;;;;1.40;1.27;;;15.10;36.40;;;;;;5085892;28;46927;-21
2022/04/05 06:30:05;;;;;;;1.40;1.30;;;15.10;36.30;;;;;;5086334;28;47305;-16
2022/04/05 06:32:35;;;;;;;1.10;0.95;;;15.10;36.30;;;;;;5085894;28;48238;-21
2022/04/05 06:35:04;;;;;;;1.20;1.10;;;15.20;36.30;;;;;;5086528;28;46816;-16
2022/04/05 06:37:31;;;;;;;1.30;1.20;;;15.20;36.30;;;;;;5086043;28;46986;-21
2022/04/05 06:39:57;;;;;;;1.48;1.20;;;15.20;36.30;;;;;;5086303;28;47253;-18
2022/04/05 06:42:25;;;;;;;1.77;1.45;;;15.20;36.30;;;;;;5085914;28;47800;-16
2022/04/05 06:44:52;;;;;;;1.95;1.15;;;15.20;36.30;;;;;;5085927;28;47133;-17
2022/04/05 06:47:19;;;;;;;1.30;1.30;;;15.20;36.20;;;;;;5085895;28;46921;-21
2022/04/05 06:49:46;;;;;;;1.58;1.00;;;15.30;36.30;;;;;;5085582;28;47090;-21
2022/04/05 06:52:14;;;;;;;2.65;1.50;;;15.30;36.20;;;;;;5085492;28;48103;-21
2022/04/05 06:54:41;;;;;;;1.63;1.15;;;15.30;36.20;;;;;;5085962;28;46981;-17
2022/04/05 06:57:07;;;;;;;1.67;1.10;;;15.30;36.20;;;;;;5085870;28;46886;-21
2022/04/05 06:59:34;;;;;;;1.95;1.15;;;15.30;36.30;;;;;;5085806;28;47061;-21
2022/04/05 07:02:01;;;;;;;1.30;1.20;;;15.30;36.20;;;;;;5085886;28;48752;-21
2022/04/05 07:04:29;;;;;;;1.35;1.25;;;15.30;36.20;;;;;;5085447;28;46736;-21
2022/04/05 07:06:56;;;;;;;1.20;1.10;;;15.30;36.20;;;;;;5085608;28;46913;-16
2022/04/05 07:09:24;;;;;;;1.38;1.27;;;15.30;36.20;;;;;;5085319;28;46982;-16
2022/04/05 07:11:51;;;;;;;1.83;1.20;;;15.30;36.20;;;;;;5086281;28;46862;-22
2022/04/05 07:14:17;;;;;;;1.30;1.20;;;15.30;36.10;;;;;;5085748;28;46836;-22
2022/04/05 07:16:44;;;;;;;2.25;1.52;;;15.30;36.20;;;;;;5086096;28;46935;-17
2022/04/05 07:19:11;;;;;;;1.65;1.30;;;15.30;36.00;;;;;;5085838;28;46889;-17
2022/04/05 07:21:37;;;;;;;3.00;1.23;;;15.30;36.00;;;;;;5085297;28;48826;-21
2022/04/05 07:24:05;;;;;;;1.20;1.13;;;15.40;36.20;;;;;;5085408;28;46950;-21
2022/04/05 07:26:33;;;;;;;1.67;1.05;;;15.40;36.10;;;;;;5085479;28;46849;-17
2022/04/05 07:28:59;;;;;;;3.15;1.00;;;15.40;36.10;;;;;;5086091;28;46858;-21
2022/04/05 07:31:26;;;;;;;1.25;1.10;;;15.40;36.10;;;;;;5085017;28;49051;-16
2022/04/05 07:33:53;;;;;;;1.42;1.17;;;15.40;36.10;;;;;;5086794;27;47317;-19
2022/04/05 07:36:19;;;;;;;1.35;1.13;;;15.40;36.10;;;;;;5089032;28;46839;-21
2022/04/05 07:38:46;;;;;;;1.75;1.60;;;15.40;36.20;;;;;;5088960;28;47132;-16
2022/04/05 07:41:13;;;;;;;2.67;1.20;;;15.40;36.10;;;;;;5088777;28;47918;-21
2022/04/05 07:43:41;;;;;;;1.90;1.40;;;15.30;36.10;;;;;;5088064;28;47457;-22
2022/04/05 07:46:10;;;;;;;2.38;1.50;;;15.40;36.20;;;;;;5088182;28;46938;-17
2022/04/05 07:48:36;;;;;;;2.42;1.30;;;15.40;36.10;;;;;;5087918;28;46807;-16
2022/04/05 07:51:03;;;;;;;2.53;1.38;;;15.40;36.10;;;;;;5087531;28;48798;-21
2022/04/05 07:53:30;;;;;;;5.18;1.60;;;15.40;36.00;;;;;;5087374;28;47071;-17
2022/04/05 07:55:57;;;;;;;3.35;1.30;;;15.40;36.20;;;;;;5087682;27;47032;-17
2022/04/05 07:58:24;;;;;;;2.67;1.60;;;15.40;36.00;;;;;;5087599;28;48093;-17
2022/04/05 08:00:52;;;;;;;1.92;1.40;;;15.40;35.90;;;;;;5087434;28;48888;-22
2022/04/05 08:03:19;;;;;;;4.15;1.30;;;15.40;36.00;;;;;;5090444;27;47028;-16
2022/04/05 08:05:45;;;;;;;4.30;1.50;;;15.50;36.00;;;;;;5090527;27;46994;-21
2022/04/05 08:08:12;;;;;;;1.20;1.10;;;15.50;36.00;;;;;;5107865;27;46996;-16
2022/04/05 08:10:39;;;;;;;1.58;1.30;;;15.50;36.00;;;;;;5108693;27;47895;-22
2022/04/05 08:13:06;;;;;;;2.20;1.30;;;15.50;36.10;;;;;;5107615;27;47334;-22
2022/04/05 08:15:33;;;;;;;6.18;1.48;;;15.50;36.00;;;;;;5108797;27;46783;-16
2022/04/05 08:18:01;;;;;;;1.58;1.35;;;15.50;36.00;;;;;;5109151;27;47174;-17
2022/04/05 08:20:27;;;;;;;2.38;1.80;;;15.50;36.10;;;;;;5108849;27;48135;-21
2022/04/05 08:22:54;;;;;;;1.75;1.20;;;15.50;36.10;;;;;;5108108;27;47087;-22
2022/04/05 08:25:21;;;;;;;1.70;1.10;;;15.50;36.10;;;;;;5107695;27;46931;-21
2022/04/05 08:27:48;;;;;;;2.55;1.55;;;15.50;36.00;;;;;;5107011;27;47011;-21
2022/04/05 08:30:17;;;;;;;4.40;1.50;;;15.50;36.10;;;;;;5087836;28;46871;-21
2022/04/05 08:32:45;;;;;;;2.25;1.30;;;15.60;36.10;;;;;;5088054;28;46870;-21
2022/04/05 08:35:13;;;;;;;3.15;1.40;;;15.60;36.10;;;;;;5088041;28;46875;-21
2022/04/05 08:37:40;;;;;;;1.90;1.40;;;15.60;36.10;;;;;;5088024;28;47009;-16
2022/04/05 08:40:08;;;;;;;2.85;1.30;;;15.70;36.10;;;;;;5087027;28;48939;-21
2022/04/05 08:42:35;;;;;;;4.30;1.20;;;15.70;36.20;;;;;;5087787;28;47030;-16
2022/04/05 08:45:02;;;;;;;1.58;1.00;;;15.70;36.10;;;;;;5087668;27;46898;-21
2022/04/05 08:47:29;;;;;;;2.90;1.20;;;15.80;36.20;;;;;;5087548;28;46910;-16
2022/04/05 08:49:56;;;;;;;6.45;1.50;;;15.80;36.30;;;;;;5087620;28;47906;-22
2022/04/05 08:52:24;;;;;;;2.60;1.70;;;15.90;36.30;;;;;;5087878;28;47183;-17
2022/04/05 08:54:51;;;;;;;1.95;1.77;;;15.90;37.00;;;;;;5087477;28;46898;-21
2022/04/05 08:57:17;;;;;;;6.50;1.50;;;16.00;36.30;;;;;;5087232;28;47288;-16
2022/04/05 08:59:44;;;;;;;2.15;1.30;;;16.00;36.20;;;;;;5087256;28;48810;-21
2022/04/05 09:02:13;;;;;;;4.65;1.40;;;16.00;36.20;;;;;;5084831;28;47240;-16
2022/04/05 09:04:40;;;;;;;2.13;1.17;;;16.10;36.00;;;;;;5087273;28;46943;-17
2022/04/05 09:07:20;;;;;;;3.63;1.50;;;16.10;36.10;;;;;;5087677;28;46933;-17
2022/04/05 09:10:06;;;;;;;4.28;1.15;;;16.10;35.90;;;;;;5087299;28;49119;-18
2022/04/05 09:12:39;;;;;;;6.07;1.42;;;16.20;36.00;;;;;;5087288;28;47061;-16
2022/04/05 09:15:09;;;;;;;1.67;1.17;;;16.20;36.00;;;;;;5087557;28;46819;-16
2022/04/05 09:17:40;;;;;;;5.30;1.45;;;16.20;36.00;;;;;;5087536;28;47255;-16
2022/04/05 09:20:07;;;;;;;2.45;1.30;;;16.20;35.90;;;;;;5087330;28;47121;-17
2022/04/05 09:22:34;;;;;;;2.13;1.20;;;16.20;35.90;;;;;;5086989;28;48178;-22
2022/04/05 09:25:05;;;;;;;3.03;1.23;;;16.30;36.00;;;;;;5086180;28;46958;-22
2022/04/05 09:27:46;;;;;;;1.88;1.20;;;16.30;35.90;;;;;;5086485;28;47088;-17
2022/04/05 09:30:14;;;;;;;2.15;1.20;;;16.30;35.90;;;;;;5086507;28;47838;-16
2022/04/05 09:32:42;;;;;;;1.92;1.30;;;16.30;35.80;;;;;;5085505;28;47498;-16
2022/04/05 09:35:09;;;;;;;1.75;1.27;;;16.30;35.90;;;;;;5086838;28;47058;-21
2022/04/05 09:37:38;;;;;;;1.15;0.90;;;16.30;35.80;;;;;;5086104;28;46851;-21
2022/04/05 09:40:23;;;;;;;3.90;1.50;;;16.30;35.80;;;;;;5086546;28;46855;-22
2022/04/05 09:43:00;;;;;;;1.50;1.40;;;16.30;35.90;;;;;;5084319;28;47202;-22
2022/04/05 09:45:43;;;;;;;2.95;1.42;;;16.30;36.00;;;;;;5086681;28;46925;-22
2022/04/05 09:48:10;;;;;;;1.23;1.13;;;16.40;36.10;;;;;;5086649;28;47291;-21
2022/04/05 09:51:02;;;;;;;1.85;1.10;;;16.40;36.00;;;;;;5086713;28;48039;-21
2022/04/05 09:53:29;;;;;;;2.10;1.15;;;16.40;36.10;;;;;;5086293;28;47416;-20
2022/04/05 09:56:04;;;;;;;2.03;1.20;;;16.40;36.00;;;;;;5086286;27;46806;-17
2022/04/05 09:58:31;;;;;;;1.20;1.00;;;16.40;36.00;;;;;;5086264;28;47279;-22
2022/04/05 10:01:07;;;;;;;2.75;1.25;;;16.40;36.10;;;;;;5086616;28;48130;-21
2022/04/05 10:03:34;;;;;;;1.02;1.00;;;16.40;36.10;;;;;;5086366;28;47698;-21
2022/04/05 10:06:02;;;;;;;1.60;1.10;;;16.50;36.20;;;;;;5086469;28;46993;-21
2022/04/05 10:08:29;;;;;;;2.28;1.42;;;16.40;36.20;;;;;;5086568;28;46922;-21
2022/04/05 10:10:56;;;;;;;3.33;1.38;;;16.40;36.20;;;;;;5086608;28;48911;-22
2022/04/05 10:13:24;;;;;;;1.65;1.17;;;16.50;36.20;;;;;;5086205;28;47163;-21
2022/04/05 10:15:52;;;;;;;2.08;1.30;;;16.50;36.20;;;;;;5086422;28;46883;-17
2022/04/05 10:18:20;;;;;;;2.30;1.20;;;16.50;36.10;;;;;;5086333;28;47329;-17
2022/04/05 10:20:47;;;;;;;3.75;1.30;;;16.50;36.20;;;;;;5086454;28;46965;-17
2022/04/05 10:23:14;;;;;;;1.77;1.30;;;16.50;36.20;;;;;;5086495;28;47174;-21
2022/04/05 10:25:41;;;;;;;1.15;1.00;;;16.50;36.20;;;;;;5085984;28;46956;-21
2022/04/05 10:28:08;;;;;;;1.20;1.10;;;16.50;36.20;;;;;;5086297;28;46976;-21
2022/04/05 10:30:38;;;;;;;3.30;1.25;;;16.60;36.20;;;;;;5085667;28;48126;-21
2022/04/05 10:33:06;;;;;;;1.92;1.27;;;16.60;36.20;;;;;;5086373;28;46895;-16
2022/04/05 10:35:33;;;;;;;2.55;1.27;;;16.60;36.10;;;;;;5086157;28;46838;-17
2022/04/05 10:38:11;;;;;;;1.42;1.10;;;16.60;36.20;;;;;;5085214;28;47085;-17
2022/04/05 10:40:38;;;;;;;1.15;1.08;;;16.60;36.10;;;;;;5085183;28;47903;-17
2022/04/05 10:43:16;;;;;;;1.52;1.23;;;16.70;36.20;;;;;;5085614;28;46922;-17
2022/04/05 10:45:44;;;;;;;1.20;1.05;;;16.70;36.20;;;;;;5085182;28;46960;-16
2022/04/05 10:48:13;;;;;;;1.52;1.20;;;16.70;36.10;;;;;;5085908;28;47091;-16
2022/04/05 10:50:40;;;;;;;1.20;1.10;;;16.70;36.10;;;;;;5085418;28;47938;-17
2022/04/05 10:53:18;;;;;;;1.38;1.00;;;16.80;36.10;;;;;;5084043;28;47063;-21
2022/04/05 10:56:14;;;;;;;1.80;1.20;;;16.70;36.10;;;;;;5085429;28;46918;-21
2022/04/05 10:58:43;;;;;;;6.45;1.23;;;16.80;36.30;;;;;;5086113;28;46888;-22
2022/04/05 11:01:14;;;;;;;1.75;1.20;;;16.80;36.40;;;;;;5085375;28;46869;-22
2022/04/05 11:03:41;;;;;;;1.42;1.23;;;16.80;36.40;;;;;;5078399;28;46860;-21
2022/04/05 11:06:08;;;;;;;3.10;1.33;;;16.80;36.50;;;;;;5071221;28;46855;-21
2022/04/05 11:08:36;;;;;;;2.20;1.30;;;16.80;36.50;;;;;;5063213;28;46915;-22
2022/04/05 11:11:04;;;;;;;1.70;1.52;;;16.90;36.60;;;;;;5063604;28;48226;-21
2022/04/05 11:13:36;;;;;;;1.48;1.25;;;16.90;36.60;;;;;;5063337;28;46972;-22
2022/04/05 11:16:03;;;;;;;2.00;1.40;;;16.90;36.60;;;;;;5064143;28;46948;-21
2022/04/05 11:18:33;;;;;;;3.75;1.30;;;16.90;36.60;;;;;;5068304;28;46915;-22
2022/04/05 11:21:00;;;;;;;3.13;1.35;;;16.90;36.60;;;;;;5085156;28;47193;-16
2022/04/05 11:23:41;;;;;;;1.63;1.15;;;16.90;36.50;;;;;;5087961;27;47160;-21
2022/04/05 11:26:39;;;;;;;2.60;1.27;;;17.00;36.50;;;;;;5085752;27;46736;-22
2022/04/05 11:29:19;;;;;;;3.67;1.30;;;17.00;36.50;;;;;;5002511;28;47122;-22
2022/04/05 11:31:46;;;;;;;1.50;1.27;;;17.10;36.40;;;;;;5073993;28;48137;-22
2022/04/05 11:34:34;;;;;;;1.65;1.33;;;17.10;36.30;;;;;;5085443;28;46913;-16
2022/04/05 11:37:00;;;;;;;3.55;1.30;;;17.10;36.20;;;;;;5085407;28;46913;-16
2022/04/05 11:39:27;;;;;;;3.78;1.15;;;17.20;36.20;;;;;;5085126;28;46847;-16
2022/04/05 11:41:58;;;;;;;3.60;1.15;;;17.20;36.20;;;;;;5085238;28;48811;-17
2022/04/05 11:44:25;;;;;;;1.40;1.30;;;17.30;36.20;;;;;;5085277;28;46811;-16
2022/04/05 11:46:51;;;;;;;1.35;0.95;;;17.20;36.10;;;;;;5085171;28;46833;-16
2022/04/05 11:49:18;;;;;;;3.05;1.33;;;17.30;36.20;;;;;;5085255;28;46795;-21
2022/04/05 11:51:47;;;;;;;2.58;1.02;;;17.30;36.30;;;;;;5084866;28;48102;-22
2022/04/05 11:54:16;;;;;;;2.13;1.40;;;17.30;36.30;;;;;;5084469;28;47073;-22
2022/04/05 11:56:43;;;;;;;2.08;1.17;;;17.30;36.20;;;;;;5084985;28;46958;-16
2022/04/05 11:59:11;;;;;;;2.00;1.20;;;17.30;36.20;;;;;;5084479;28;46966;-16
2022/04/05 12:01:39;;;;;;;2.67;1.10;;;17.30;36.20;;;;;;5084609;28;46868;-16
2022/04/05 12:04:07;;;;;;;2.10;1.20;;;17.30;36.30;;;;;;5084860;28;46981;-17
2022/04/05 12:06:35;;;;;;;2.05;1.63;;;17.30;36.20;;;;;;5084729;28;46940;-17
2022/04/05 12:09:04;;;;;;;4.32;1.30;;;17.40;36.30;;;;;;5084786;28;46864;-16
2022/04/05 12:11:31;;;;;;;3.28;1.10;;;17.40;36.80;;;;;;5085002;28;46890;-18
2022/04/05 12:13:59;;;;;;;1.42;1.08;;;17.50;36.20;;;;;;5084690;28;46846;-16
2022/04/05 12:16:26;;;;;;;2.08;1.20;;;17.50;36.20;;;;;;5084562;28;46842;-17
2022/04/05 12:18:53;;;;;;;1.92;1.20;;;17.50;36.20;;;;;;5084694;28;46831;-17
2022/04/05 12:21:21;;;;;;;1.55;1.25;;;17.50;36.10;;;;;;5088239;28;48101;-16
2022/04/05 12:23:48;;;;;;;2.88;1.50;;;17.50;36.10;;;;;;5087466;28;46850;-17
2022/04/05 12:26:18;;;;;;;1.10;1.00;;;17.60;36.20;;;;;;5087733;28;46930;-21
2022/04/05 12:28:49;;;;;;;3.05;1.20;;;17.60;36.30;;;;;;5087767;28;47025;-22
2022/04/05 12:31:17;;;;;;;1.10;1.10;;;17.60;36.30;;;;;;5087850;28;47137;-22
2022/04/05 12:33:54;;;;;;;1.77;1.20;;;17.60;36.40;;;;;;5085200;28;47076;-22
2022/04/05 12:36:21;;;;;;;5.03;1.55;;;17.70;36.40;;;;;;5088453;28;46821;-21
2022/04/05 12:38:47;;;;;;;2.53;1.20;;;17.70;36.50;;;;;;5088072;28;47045;-21
2022/04/05 12:41:16;;;;;;;6.30;1.27;;;17.60;36.60;;;;;;5087848;28;46919;-22
2022/04/05 12:43:43;;;;;;;5.35;1.20;;;17.70;36.60;;;;;;5094243;27;47512;-21
2022/04/05 12:46:11;;;;;;;2.20;1.10;;;17.70;37.40;;;;;;5102689;27;46887;-20
2022/04/05 12:48:37;;;;;;;4.15;1.40;;;17.70;36.90;;;;;;5088016;28;47334;-20
2022/04/05 12:51:04;;;;;;;3.97;1.05;;;17.70;36.90;;;;;;5087217;28;47975;-21
2022/04/05 12:53:35;;;;;;;2.05;1.10;;;17.70;37.10;;;;;;5074275;28;46968;-21